createdAt,value
2022-09-02T00:01:02.406Z,79.99
2022-09-02T00:03:31.712Z,79.58
2022-09-02T00:05:58.378Z,80.07
2022-09-02T00:08:25.118Z,80.84
2022-09-02T00:10:51.720Z,80.44
2022-09-02T00:13:20.775Z,80.31
2022-09-02T00:15:49.206Z,80.66
2022-09-02T00:18:18.176Z,80.56
2022-09-02T00:20:47.900Z,79.95
2022-09-02T00:23:16.655Z,80.30
2022-09-02T00:25:44.778Z,81.13
2022-09-02T00:28:13.051Z,81.42
2022-09-02T00:30:40.837Z,81.80
2022-09-02T00:33:10.953Z,81.98
2022-09-02T00:35:41.037Z,82.02
2022-09-02T00:38:08.354Z,82.85
2022-09-02T00:40:35.342Z,82.92
2022-09-02T00:43:05.360Z,83.48
2022-09-02T00:45:32.015Z,83.50
2022-09-02T00:47:58.573Z,84.10
2022-09-02T00:50:32.351Z,84.89
2022-09-02T00:53:06.272Z,85.10
2022-09-02T00:55:47.545Z,85.36
2022-09-02T00:58:20.773Z,85.28
2022-09-02T01:00:52.555Z,85.22
2022-09-02T01:03:23.549Z,86.15
2022-09-02T01:05:51.728Z,84.97
2022-09-02T01:08:25.463Z,85.90
2022-09-02T01:10:55.729Z,86.47
2022-09-02T01:13:26.471Z,86.62
2022-09-02T01:15:56.839Z,86.50
2022-09-02T01:18:29.377Z,85.87
2022-09-02T01:21:00.451Z,85.76
2022-09-02T01:23:28.498Z,85.47
2022-09-02T01:25:58.614Z,84.48
2022-09-02T01:28:25.669Z,84.84
2022-09-02T01:30:54.821Z,85.05
2022-09-02T01:33:23.375Z,85.15
2022-09-02T01:35:52.532Z,86.05
2022-09-02T01:38:20.207Z,86.13
2022-09-02T01:40:47.423Z,85.37
2022-09-02T01:43:23.911Z,85.45
2022-09-02T01:45:53.503Z,85.95
2022-09-02T01:48:21.548Z,85.39
2022-09-02T01:50:57.027Z,86.36
2022-09-02T01:53:24.151Z,86.80
2022-09-02T01:55:50.942Z,86.18
2022-09-02T01:58:17.608Z,85.32
2022-09-02T02:00:44.348Z,86.11
2022-09-02T02:03:11.179Z,87.37
2022-09-02T02:05:38.175Z,88.51
2022-09-02T02:08:06.031Z,87.93
2022-09-02T02:10:33.053Z,88.06
2022-09-02T02:13:03.538Z,88.30
2022-09-02T02:17:55.780Z,87.37
2022-09-02T02:20:22.464Z,87.41
2022-09-02T02:22:49.480Z,87.60
2022-09-02T02:25:16.634Z,88.03
2022-09-02T02:27:45.077Z,88.76
2022-09-02T02:30:14.314Z,89.62
2022-09-02T02:32:41.970Z,89.31
2022-09-02T02:35:09.178Z,88.79
2022-09-02T02:37:35.764Z,88.73
2022-09-02T02:40:03.708Z,89.36
2022-09-02T02:42:30.356Z,88.94
2022-09-02T02:44:57.994Z,89.94
2022-09-02T02:47:24.986Z,90.70
2022-09-02T02:49:51.555Z,90.86
2022-09-02T02:52:18.142Z,91.52
2022-09-02T02:54:44.874Z,91.19
2022-09-02T02:57:12.260Z,90.94
2022-09-02T02:59:38.954Z,91.49
2022-09-02T03:02:06.887Z,91.18
2022-09-02T03:04:34.114Z,90.11
2022-09-02T03:07:00.698Z,89.36
2022-09-02T03:09:27.238Z,89.73
2022-09-02T03:11:53.837Z,90.33
2022-09-02T03:14:20.417Z,90.43
2022-09-02T03:16:46.981Z,89.83
2022-09-02T03:19:14.251Z,89.52
2022-09-02T03:21:42.240Z,88.99
2022-09-02T03:24:11.159Z,88.99
2022-09-02T03:26:41.713Z,88.59
2022-09-02T03:29:08.324Z,88.92
2022-09-02T03:31:35.427Z,89.54
2022-09-02T03:34:03.554Z,90.12
2022-09-02T03:36:34.160Z,90.55
2022-09-02T03:39:01.881Z,91.01
2022-09-02T03:41:28.758Z,91.16
2022-09-02T03:43:57.893Z,91.00
2022-09-02T03:46:25.531Z,91.58
2022-09-02T03:48:52.191Z,91.76
2022-09-02T03:51:26.057Z,92.09
2022-09-02T03:53:53.207Z,92.10
2022-09-02T03:56:20.821Z,91.64
2022-09-02T03:58:49.717Z,91.33
2022-09-02T04:01:19.615Z,91.15
2022-09-02T04:03:47.208Z,91.75
2022-09-02T04:06:22.194Z,92.10
2022-09-02T04:08:49.814Z,92.78
2022-09-02T04:11:20.913Z,92.95
2022-09-02T04:13:48.884Z,92.33
2022-09-02T04:16:18.218Z,91.55
2022-09-02T04:18:44.822Z,91.27
2022-09-02T04:21:11.926Z,90.49
2022-09-02T04:23:38.919Z,89.77
2022-09-02T04:26:07.584Z,89.15
2022-09-02T04:28:34.731Z,90.78
2022-09-02T04:31:05.254Z,92.30
2022-09-02T04:33:31.953Z,92.79
2022-09-02T04:36:05.746Z,93.19
2022-09-02T04:38:32.631Z,92.46
2022-09-02T04:40:59.272Z,92.97
2022-09-02T04:43:25.858Z,93.55
2022-09-02T04:45:52.683Z,93.96
2022-09-02T04:48:19.792Z,93.87
2022-09-02T04:50:47.677Z,93.65
2022-09-02T04:53:14.705Z,93.70
2022-09-02T04:55:42.823Z,94.11
2022-09-02T04:58:12.786Z,94.49
2022-09-02T05:00:40.389Z,94.45
2022-09-02T05:03:07.040Z,93.74
2022-09-02T05:05:34.640Z,94.14
2022-09-02T05:08:04.669Z,94.26
2022-09-02T05:10:32.819Z,94.62
2022-09-02T05:12:59.919Z,94.75
2022-09-02T05:15:26.873Z,94.91
2022-09-02T05:17:53.375Z,94.87
2022-09-02T05:20:20.037Z,95.33
2022-09-02T05:22:46.724Z,94.65
2022-09-02T05:25:13.266Z,95.27
2022-09-02T05:27:39.831Z,94.69
2022-09-02T05:30:07.233Z,93.79
2022-09-02T05:32:37.768Z,93.89
2022-09-02T05:35:05.250Z,94.51
2022-09-02T05:37:31.780Z,94.63
2022-09-02T05:39:58.328Z,94.62
2022-09-02T05:42:26.357Z,94.31
2022-09-02T05:44:53.126Z,94.34
2022-09-02T05:47:19.618Z,94.26
2022-09-02T05:49:46.194Z,93.90
2022-09-02T05:52:13.564Z,93.71
2022-09-02T05:54:40.643Z,93.88
2022-09-02T05:57:11.138Z,94.00
2022-09-02T05:59:42.204Z,93.54
2022-09-02T06:02:10.908Z,93.52
2022-09-02T06:04:43.127Z,93.53
2022-09-02T06:07:09.868Z,93.26
2022-09-02T06:09:41.137Z,93.21
2022-09-02T06:12:08.687Z,93.38
2022-09-02T06:14:35.416Z,93.16
2022-09-02T06:17:02.045Z,92.65
2022-09-02T06:19:32.569Z,92.78
2022-09-02T06:22:01.576Z,93.37
2022-09-02T06:24:29.171Z,92.59
2022-09-02T06:26:55.900Z,92.57
2022-09-02T06:29:24.365Z,93.27
2022-09-02T06:31:51.975Z,92.55
2022-09-02T06:34:23.977Z,92.09
2022-09-02T06:36:50.766Z,91.81
2022-09-02T06:39:20.389Z,91.84
2022-09-02T06:41:50.929Z,91.81
2022-09-02T06:44:18.779Z,93.09
2022-09-02T06:46:49.006Z,92.00
2022-09-02T06:49:21.634Z,91.85
2022-09-02T06:51:49.878Z,91.15
2022-09-02T06:54:19.992Z,90.65
2022-09-02T06:56:50.160Z,90.81
2022-09-02T06:59:21.169Z,89.97
2022-09-02T07:01:48.344Z,89.67
2022-09-02T07:04:35.197Z,89.90
2022-09-02T07:07:05.354Z,89.05
2022-09-02T07:09:35.744Z,88.25
2022-09-02T07:12:05.372Z,87.49
2022-09-02T07:14:37.378Z,88.61
2022-09-02T07:17:04.054Z,87.42
2022-09-02T07:19:33.275Z,86.75
2022-09-02T07:21:59.911Z,86.79
2022-09-02T07:24:28.670Z,85.80
2022-09-02T07:26:55.883Z,85.60
2022-09-02T07:29:23.129Z,85.63
2022-09-02T07:31:50.104Z,86.60
2022-09-02T07:34:18.356Z,84.78
2022-09-02T07:36:45.967Z,84.49
2022-09-02T07:39:13.945Z,84.07
2022-09-02T07:41:41.761Z,83.56
2022-09-02T07:44:08.782Z,83.34
2022-09-02T07:46:41.198Z,82.19
2022-09-02T07:49:12.145Z,81.96
2022-09-02T07:51:43.428Z,81.70
2022-09-02T07:54:15.045Z,80.15
2022-09-02T07:56:43.188Z,80.62
2022-09-02T07:59:11.053Z,79.23
2022-09-02T08:01:38.365Z,78.35
2022-09-02T08:04:06.418Z,77.63
2022-09-02T08:06:35.065Z,77.19
2022-09-02T08:09:04.655Z,74.73
2022-09-02T08:11:32.711Z,75.13
2022-09-02T08:14:04.605Z,74.21
2022-09-02T08:16:31.729Z,74.02
2022-09-02T08:18:58.318Z,73.57
2022-09-02T08:21:25.781Z,74.98
2022-09-02T08:23:52.762Z,72.21
2022-09-02T08:26:19.570Z,71.21
2022-09-02T08:28:46.113Z,70.96
2022-09-02T08:31:12.799Z,68.85
2022-09-02T08:33:39.444Z,69.01
2022-09-02T08:36:14.642Z,67.85
2022-09-02T08:38:48.084Z,66.26
2022-09-02T08:41:21.197Z,66.84
2022-09-02T08:43:50.120Z,67.51
2022-09-02T08:46:18.531Z,65.20
2022-09-02T08:48:59.629Z,65.02
2022-09-02T08:51:42.944Z,64.94
2022-09-02T08:54:44.223Z,61.89
2022-09-02T08:57:11.983Z,61.99
2022-09-02T09:02:35.457Z,61.16
2022-09-02T09:05:23.863Z,61.01
2022-09-02T09:08:04.853Z,58.88
2022-09-02T09:10:56.870Z,58.98
2022-09-02T09:13:48.291Z,58.81
2022-09-02T09:16:28.390Z,56.14
2022-09-02T09:19:10.782Z,56.47
2022-09-02T09:21:37.835Z,53.16
2022-09-02T09:24:22.553Z,54.75
2022-09-02T09:26:49.169Z,55.00
2022-09-02T09:29:15.744Z,53.30
2022-09-02T09:31:44.209Z,53.16
2022-09-02T09:34:14.509Z,51.05
2022-09-02T09:36:41.019Z,52.17
2022-09-02T09:39:22.632Z,50.95
2022-09-02T09:41:50.416Z,52.18
2022-09-02T09:44:49.320Z,50.48
2022-09-02T09:47:22.798Z,50.82
2022-09-02T09:49:51.418Z,49.42
2022-09-02T09:52:29.507Z,47.00
2022-09-02T09:55:24.798Z,48.87
2022-09-02T09:57:53.634Z,47.74
2022-09-02T10:00:32.320Z,47.79
2022-09-02T10:03:03.501Z,47.30
2022-09-02T10:05:34.163Z,47.13
2022-09-02T10:08:04.354Z,45.07
2022-09-02T10:10:58.348Z,46.60
2022-09-02T10:13:34.293Z,45.52
2022-09-02T10:16:06.131Z,45.92
2022-09-02T10:18:40.396Z,47.83
2022-09-02T10:21:44.521Z,47.06
2022-09-02T10:24:47.549Z,47.98
2022-09-02T10:27:29.489Z,47.52
2022-09-02T10:30:03.611Z,47.14
2022-09-02T10:32:36.347Z,46.30
2022-09-02T10:35:21.794Z,46.75
2022-09-02T10:38:01.401Z,45.23
2022-09-02T10:40:41.774Z,46.89
2022-09-02T10:43:10.457Z,47.90
2022-09-02T10:45:48.085Z,48.36
2022-09-02T10:48:47.027Z,48.08
2022-09-02T10:51:25.772Z,47.60
2022-09-02T10:54:10.972Z,46.68
2022-09-02T10:56:43.661Z,46.19
2022-09-02T10:59:16.307Z,46.33
2022-09-02T11:01:52.463Z,48.36
2022-09-02T11:04:30.565Z,49.00
2022-09-02T11:07:02.906Z,46.47
2022-09-02T11:09:34.839Z,45.42
2022-09-02T11:12:12.645Z,46.48
2022-09-02T11:15:00.509Z,46.95
2022-09-02T11:17:54.859Z,45.84
2022-09-02T11:20:41.705Z,45.16
2022-09-02T11:23:31.207Z,45.44
2022-09-02T11:26:04.744Z,45.25
2022-09-02T11:28:55.991Z,44.56
2022-09-02T11:31:50.063Z,44.01
2022-09-02T11:34:16.690Z,44.79
2022-09-02T11:36:43.829Z,44.79
2022-09-02T11:39:12.205Z,43.96
2022-09-02T11:42:00.716Z,43.52
2022-09-02T11:44:52.812Z,44.38
2022-09-02T11:47:25.916Z,42.94
2022-09-02T11:49:55.230Z,43.97
2022-09-02T11:52:46.378Z,44.91
2022-09-02T11:55:34.506Z,43.86
2022-09-02T11:58:02.050Z,43.22
2022-09-02T12:00:58.553Z,42.94
2022-09-02T12:03:41.181Z,43.95
2022-09-02T12:06:21.604Z,43.11
2022-09-02T12:08:48.873Z,43.44
2022-09-02T12:11:42.163Z,42.84
2022-09-02T12:14:25.388Z,43.10
2022-09-02T12:17:07.415Z,42.02
2022-09-02T12:19:38.522Z,42.41
2022-09-02T12:22:17.224Z,41.63
2022-09-02T12:24:54.812Z,39.37
2022-09-02T12:27:43.845Z,40.84
2022-09-02T12:30:12.770Z,40.89
2022-09-02T12:32:51.537Z,40.30
2022-09-02T12:35:32.662Z,41.64
2022-09-02T12:38:11.594Z,40.71
2022-09-02T12:40:52.779Z,39.74
2022-09-02T12:43:35.724Z,40.95
2022-09-02T12:46:19.265Z,41.10
2022-09-02T12:48:59.381Z,40.72
2022-09-02T12:52:02.538Z,41.33
2022-09-02T12:54:36.878Z,41.44
2022-09-02T12:57:04.503Z,41.09
2022-09-02T12:59:42.018Z,40.78
2022-09-02T13:02:30.315Z,40.77
2022-09-02T13:05:02.800Z,40.96
2022-09-02T13:07:57.081Z,40.70
2022-09-02T13:10:47.313Z,40.54
2022-09-02T13:13:43.977Z,41.29
2022-09-02T13:16:28.658Z,40.71
2022-09-02T13:19:01.243Z,40.21
2022-09-02T13:21:30.821Z,40.96
2022-09-02T13:25:00.014Z,41.08
2022-09-02T13:27:37.962Z,40.63
2022-09-02T13:30:10.910Z,40.11
2022-09-02T13:32:39.134Z,41.00
2022-09-02T13:35:09.214Z,40.82
2022-09-02T13:37:39.170Z,40.48
2022-09-02T13:40:18.040Z,40.09
2022-09-02T13:43:01.591Z,39.66
2022-09-02T13:45:33.146Z,39.57
2022-09-02T13:48:02.956Z,39.44
2022-09-02T13:50:31.682Z,40.76
2022-09-02T13:55:52.762Z,40.63
2022-09-02T13:58:32.190Z,40.63
2022-09-02T14:01:19.283Z,40.83
2022-09-02T14:03:51.804Z,40.42
2022-09-02T14:06:25.314Z,40.85
2022-09-02T14:08:56.003Z,41.68
2022-09-02T14:11:23.121Z,42.13
2022-09-02T14:13:50.979Z,42.12
2022-09-02T14:16:29.371Z,42.43
2022-09-02T14:19:17.021Z,42.28
2022-09-02T14:21:57.995Z,42.99
2022-09-02T14:24:29.884Z,42.43
2022-09-02T14:26:57.345Z,42.73
2022-09-02T14:29:24.929Z,41.07
2022-09-02T14:32:13.544Z,41.98
2022-09-02T14:34:48.405Z,41.54
2022-09-02T14:37:25.643Z,41.40
2022-09-02T14:40:12.843Z,40.16
2022-09-02T14:43:12.548Z,41.97
2022-09-02T14:45:50.618Z,42.00
2022-09-02T14:48:24.957Z,42.24
2022-09-02T14:51:02.717Z,41.13
2022-09-02T14:53:29.840Z,42.76
2022-09-02T14:55:57.388Z,42.82
2022-09-02T14:58:27.426Z,41.78
2022-09-02T15:01:00.119Z,42.16
2022-09-02T15:03:28.294Z,41.39
2022-09-02T15:05:54.879Z,41.75
2022-09-02T15:08:22.092Z,41.27
2022-09-02T15:10:49.363Z,40.94
2022-09-02T15:13:26.864Z,41.75
2022-09-02T15:15:55.541Z,41.18
2022-09-02T15:18:23.246Z,40.86
2022-09-02T15:20:51.223Z,41.93
2022-09-02T15:23:18.231Z,42.16
2022-09-02T15:25:44.848Z,41.26
2022-09-02T15:28:11.677Z,42.88
2022-09-02T15:30:38.462Z,42.62
2022-09-02T15:33:07.003Z,42.40
2022-09-02T15:35:43.743Z,41.67
2022-09-02T15:38:10.290Z,42.64
2022-09-02T15:40:36.790Z,41.51
2022-09-02T15:43:03.384Z,40.95
2022-09-02T15:45:29.894Z,41.32
2022-09-02T15:47:59.597Z,41.58
2022-09-02T15:50:28.626Z,41.93
2022-09-02T15:52:56.088Z,41.76
2022-09-02T15:55:29.244Z,42.37
2022-09-02T15:57:55.966Z,41.61
2022-09-02T16:00:22.633Z,41.89
2022-09-02T16:02:54.532Z,42.42
2022-09-02T16:05:21.346Z,42.00
2022-09-02T16:07:48.559Z,41.28
2022-09-02T16:10:15.426Z,42.14
2022-09-02T16:12:42.187Z,42.41
2022-09-02T16:15:09.142Z,41.83
2022-09-02T16:17:36.143Z,41.51
2022-09-02T16:20:04.985Z,40.89
2022-09-02T16:22:31.569Z,41.15
2022-09-02T16:25:00.897Z,41.33
2022-09-02T16:27:45.713Z,41.06
2022-09-02T16:30:12.422Z,41.38
2022-09-02T16:32:39.097Z,41.85
2022-09-02T16:35:09.368Z,40.63
2022-09-02T16:37:35.926Z,40.63
2022-09-02T16:40:03.405Z,40.67
2022-09-02T16:42:37.415Z,41.19
2022-09-02T16:45:11.495Z,40.54
2022-09-02T16:47:38.054Z,40.70
2022-09-02T16:50:04.786Z,41.42
2022-09-02T16:52:34.825Z,40.95
2022-09-02T16:55:01.550Z,41.76
2022-09-02T16:57:28.567Z,41.76
2022-09-02T16:59:58.476Z,41.39
2022-09-02T17:02:26.662Z,42.17
2022-09-02T17:05:00.139Z,42.25
2022-09-02T17:07:28.533Z,42.24
2022-09-02T17:09:55.420Z,41.55
2022-09-02T17:12:22.025Z,41.56
2022-09-02T17:14:48.683Z,42.38
2022-09-02T17:17:17.114Z,42.32
2022-09-02T17:19:43.696Z,42.96
2022-09-02T17:22:14.201Z,44.23
2022-09-02T17:24:41.949Z,43.10
2022-09-02T17:27:08.954Z,42.75
2022-09-02T17:29:50.856Z,43.26
2022-09-02T17:32:17.949Z,42.91
2022-09-02T17:34:44.685Z,43.33
2022-09-02T17:37:11.300Z,43.84
2022-09-02T17:39:37.995Z,44.56
2022-09-02T17:42:07.211Z,45.37
2022-09-02T17:44:37.607Z,45.38
2022-09-02T17:47:23.113Z,45.31
2022-09-02T17:49:53.345Z,44.83
2022-09-02T17:52:24.307Z,45.23
2022-09-02T17:54:52.866Z,45.25
2022-09-02T17:57:43.260Z,46.55
2022-09-02T18:00:26.613Z,47.46
2022-09-02T18:03:25.400Z,47.23
2022-09-02T18:06:01.576Z,48.19
2022-09-02T18:08:40.467Z,48.78
2022-09-02T18:11:07.898Z,48.89
2022-09-02T18:14:05.508Z,48.20
2022-09-02T18:16:51.538Z,47.89
2022-09-02T18:19:39.978Z,47.98
2022-09-02T18:22:27.754Z,49.27
2022-09-02T18:25:16.521Z,48.81
2022-09-02T18:28:16.564Z,48.93
2022-09-02T18:30:56.301Z,49.65
2022-09-02T18:33:56.532Z,50.32
2022-09-02T18:36:39.186Z,49.77
2022-09-02T18:39:14.696Z,49.43
2022-09-02T18:41:51.801Z,48.91
2022-09-02T18:44:29.429Z,48.86
2022-09-02T18:47:01.927Z,48.92
2022-09-02T18:49:32.966Z,48.90
2022-09-02T18:52:07.279Z,48.70
2022-09-02T18:54:54.216Z,48.77
2022-09-02T18:57:21.114Z,48.82
2022-09-02T18:59:55.411Z,48.87
2022-09-02T19:02:36.195Z,48.97
2022-09-02T19:05:07.137Z,48.67
2022-09-02T19:07:54.897Z,48.96
2022-09-02T19:10:22.871Z,48.90
2022-09-02T19:12:50.185Z,48.92
2022-09-02T19:15:18.086Z,49.05
2022-09-02T19:17:44.750Z,49.04
2022-09-02T19:20:11.688Z,49.25
2022-09-02T19:22:44.348Z,49.27
2022-09-02T19:25:16.242Z,49.47
2022-09-02T19:27:43.717Z,49.38
2022-09-02T19:30:18.713Z,49.22
2022-09-02T19:32:47.860Z,49.54
2022-09-02T19:35:18.127Z,49.62
2022-09-02T19:37:47.389Z,49.92
2022-09-02T19:40:18.978Z,49.90
2022-09-02T19:42:45.555Z,49.61
2022-09-02T19:45:16.365Z,50.49
2022-09-02T19:50:35.072Z,50.51
2022-09-02T19:53:01.722Z,50.34
2022-09-02T19:55:33.822Z,50.83
2022-09-02T19:58:00.757Z,50.95
2022-09-02T20:00:28.024Z,50.77
2022-09-02T20:02:55.711Z,50.84
2022-09-02T20:05:25.176Z,50.85
2022-09-02T20:07:53.745Z,51.01
2022-09-02T20:10:28.156Z,50.76
2022-09-02T20:12:57.024Z,51.22
2022-09-02T20:15:23.549Z,51.06
2022-09-02T20:17:50.127Z,51.33
2022-09-02T20:20:21.632Z,51.71
2022-09-02T20:22:51.965Z,51.65
2022-09-02T20:25:24.708Z,51.90
2022-09-02T20:28:02.192Z,52.53
2022-09-02T20:30:34.128Z,52.33
2022-09-02T20:33:17.435Z,51.97
2022-09-02T20:35:47.079Z,52.79
2022-09-02T20:38:28.980Z,53.29
2022-09-02T20:41:10.750Z,53.76
2022-09-02T20:43:56.871Z,55.67
2022-09-02T20:46:59.095Z,56.85
2022-09-02T20:49:29.459Z,57.35
2022-09-02T20:52:21.311Z,58.22
2022-09-02T20:54:56.462Z,58.67
2022-09-02T20:57:51.779Z,58.10
2022-09-02T21:00:22.643Z,58.39
2022-09-02T21:03:03.265Z,58.54
2022-09-02T21:05:39.850Z,58.79
2022-09-02T21:08:25.014Z,59.76
2022-09-02T21:10:59.932Z,59.82
2022-09-02T21:14:07.112Z,60.39
2022-09-02T21:16:43.112Z,60.69
2022-09-02T21:19:35.552Z,61.26
2022-09-02T21:22:12.159Z,61.63
2022-09-02T21:24:53.281Z,61.01
2022-09-02T21:27:25.363Z,60.72
2022-09-02T21:30:13.373Z,60.29
2022-09-02T21:32:42.629Z,60.84
2022-09-02T21:35:22.856Z,62.21
2022-09-02T21:37:57.663Z,63.88
2022-09-02T21:40:39.930Z,63.63
2022-09-02T21:43:41.931Z,63.41
2022-09-02T21:46:25.681Z,65.87
2022-09-02T21:49:07.451Z,66.13
2022-09-02T21:51:39.136Z,64.65
2022-09-02T21:54:32.262Z,66.76
2022-09-02T21:57:29.797Z,67.75
2022-09-02T22:00:08.233Z,68.50
2022-09-02T22:02:58.148Z,68.22
2022-09-02T22:05:48.051Z,67.12
2022-09-02T22:09:03.589Z,68.69
2022-09-02T22:11:57.215Z,67.47
2022-09-02T22:14:53.942Z,67.62
2022-09-02T22:17:51.534Z,67.04
2022-09-02T22:20:23.159Z,67.10
2022-09-02T22:22:56.474Z,67.15
2022-09-02T22:25:24.435Z,66.47
2022-09-02T22:28:04.982Z,65.66
2022-09-02T22:30:35.531Z,65.51
2022-09-02T22:33:13.724Z,65.01
2022-09-02T22:35:54.236Z,64.94
2022-09-02T22:38:34.276Z,65.96
2022-09-02T22:41:03.232Z,66.47
2022-09-02T22:44:12.426Z,66.02
2022-09-02T22:47:22.998Z,66.84
2022-09-02T22:50:19.358Z,67.08
2022-09-02T22:52:46.623Z,66.59
2022-09-02T22:55:15.609Z,66.60
2022-09-02T22:58:21.317Z,66.21
2022-09-02T23:01:17.040Z,67.28
2022-09-02T23:04:01.926Z,70.25
2022-09-02T23:06:34.239Z,70.91
2022-09-02T23:09:17.669Z,69.59
2022-09-02T23:12:12.059Z,69.65
2022-09-02T23:15:04.235Z,70.20
2022-09-02T23:17:33.722Z,70.10
2022-09-02T23:20:09.616Z,71.61
2022-09-02T23:22:54.492Z,72.08
2022-09-02T23:25:49.999Z,70.95
2022-09-02T23:28:19.033Z,70.86
2022-09-02T23:31:12.483Z,71.24
2022-09-02T23:33:41.743Z,72.01
2022-09-02T23:36:15.981Z,72.25
2022-09-02T23:39:11.456Z,73.77
2022-09-02T23:41:38.875Z,72.40
2022-09-02T23:44:06.873Z,73.04
2022-09-02T23:46:42.141Z,73.00
2022-09-02T23:49:29.680Z,72.75
2022-09-02T23:52:08.466Z,73.86
2022-09-02T23:55:19.962Z,73.53
2022-09-02T23:57:49.616Z,73.54
